Main page
METAR-TAF:

METAR-TAF

Airports :

Wiley Post–Will Rogers Memorial Airport

Barrow, Alaska, United States

latitude: 71-17-07N, longitude: 156-45-57W, elevation: 13 m

Current weather observation

The report was made 38 minutes ago, at 15:53 UTC
Wind 7 kt from the West/Southwest
Temperature -36°C
Humidity 2,194%
Pressure 1024 hPa
Visibility: 16.1 km
Clear sky

METAR: PABR 261553Z 25007KT 10SM CLR M36/ A3023 RMK AO2 SLP240 T1356

Time: 07:31 (16:31 UTC)

Forecast

The report was made 5 hours and 6 minutes ago, at 11:25 UTC
Forecast valid from 26 at 12 UTC to 27 at 12 UTC
Wind 5 kt from the West
Visibility: 10 km
Clear sky
From 27 at 0400 UTC
Wind 6 kt from the South
Visibility: 10 km
Clear sky

TAF: PABR 261125Z 2612/2712 27005KT P6SM SKC FM270400 18006KT P6SM SKC

Weather observations and forecasts of more than 4000 airports (METAR and TAF reports).

The available stations are represented by yellow and red dots on the map.

Hover mouse over dot to see the name of the station.

Then click to see weather observations and forecasts.

To change the map : click on the green buttons with a black cross to zoom in, on the green button with a dash to zoom out, or on the green arrows for adjacent maps.


METAR-TAF: